sensor_id;sensor_type;location;lat;lon;timestamp;temperature;humidity
2967;DHT22;1493;51.496;7.210;2023-11-19T00:00:09;10.90;99.90
2967;DHT22;1493;51.496;7.210;2023-11-19T00:02:39;11.00;99.90
2967;DHT22;1493;51.496;7.210;2023-11-19T00:05:07;11.00;99.90
2967;DHT22;1493;51.496;7.210;2023-11-19T00:07:37;11.00;99.90
2967;DHT22;1493;51.496;7.210;2023-11-19T00:10:08;11.00;99.90
2967;DHT22;1493;51.496;7.210;2023-11-19T00:12:37;11.10;99.90
2967;DHT22;1493;51.496;7.210;2023-11-19T00:15:06;11.10;99.90
2967;DHT22;1493;51.496;7.210;2023-11-19T00:17:36;11.10;99.90
2967;DHT22;1493;51.496;7.210;2023-11-19T00:20:07;11.10;99.90
2967;DHT22;1493;51.496;7.210;2023-11-19T00:22:34;11.20;99.90
2967;DHT22;1493;51.496;7.210;2023-11-19T00:25:01;11.20;99.90
2967;DHT22;1493;51.496;7.210;2023-11-19T00:27:29;11.30;99.90
2967;DHT22;1493;51.496;7.210;2023-11-19T00:29:56;11.30;99.90
2967;DHT22;1493;51.496;7.210;2023-11-19T00:32:23;11.40;99.90
2967;DHT22;1493;51.496;7.210;2023-11-19T00:34:50;11.40;99.90
2967;DHT22;1493;51.496;7.210;2023-11-19T00:37:19;11.40;99.90
2967;DHT22;1493;51.496;7.210;2023-11-19T00:39:45;11.50;99.90
2967;DHT22;1493;51.496;7.210;2023-11-19T00:42:12;11.50;99.90
2967;DHT22;1493;51.496;7.210;2023-11-19T00:44:40;11.50;99.90
2967;DHT22;1493;51.496;7.210;2023-11-19T00:47:07;11.60;99.90
2967;DHT22;1493;51.496;7.210;2023-11-19T00:49:34;11.60;99.90
2967;DHT22;1493;51.496;7.210;2023-11-19T00:52:01;11.70;99.90
2967;DHT22;1493;51.496;7.210;2023-11-19T00:54:29;11.70;99.90
2967;DHT22;1493;51.496;7.210;2023-11-19T00:56:56;11.70;99.90
2967;DHT22;1493;51.496;7.210;2023-11-19T00:59:23;11.70;99.90
2967;DHT22;1493;51.496;7.210;2023-11-19T01:01:50;11.70;99.90
2967;DHT22;1493;51.496;7.210;2023-11-19T01:04:17;11.80;99.90
2967;DHT22;1493;51.496;7.210;2023-11-19T01:06:44;11.80;99.90
2967;DHT22;1493;51.496;7.210;2023-11-19T01:09:11;11.80;99.90
2967;DHT22;1493;51.496;7.210;2023-11-19T01:11:39;11.80;99.90
2967;DHT22;1493;51.496;7.210;2023-11-19T01:14:06;11.90;99.90
2967;DHT22;1493;51.496;7.210;2023-11-19T01:16:33;11.90;99.90
2967;DHT22;1493;51.496;7.210;2023-11-19T01:19:00;11.90;99.90
2967;DHT22;1493;51.496;7.210;2023-11-19T01:21:30;12.00;99.90
2967;DHT22;1493;51.496;7.210;2023-11-19T01:23:57;12.00;99.90
2967;DHT22;1493;51.496;7.210;2023-11-19T01:26:24;12.00;99.90
2967;DHT22;1493;51.496;7.210;2023-11-19T01:28:52;12.00;99.90
2967;DHT22;1493;51.496;7.210;2023-11-19T01:31:19;12.00;99.90
2967;DHT22;1493;51.496;7.210;2023-11-19T01:33:46;12.10;99.90
2967;DHT22;1493;51.496;7.210;2023-11-19T01:36:13;12.00;99.90
2967;DHT22;1493;51.496;7.210;2023-11-19T01:38:40;12.10;99.90
2967;DHT22;1493;51.496;7.210;2023-11-19T01:41:07;12.20;99.90
2967;DHT22;1493;51.496;7.210;2023-11-19T01:43:34;12.20;99.90
2967;DHT22;1493;51.496;7.210;2023-11-19T01:46:05;12.20;99.90
2967;DHT22;1493;51.496;7.210;2023-11-19T01:48:33;12.20;99.90
2967;DHT22;1493;51.496;7.210;2023-11-19T01:51:01;12.20;99.90
2967;DHT22;1493;51.496;7.210;2023-11-19T01:53:29;12.20;99.90
2967;DHT22;1493;51.496;7.210;2023-11-19T01:55:57;12.20;99.90
2967;DHT22;1493;51.496;7.210;2023-11-19T01:58:24;12.20;99.90
2967;DHT22;1493;51.496;7.210;2023-11-19T02:00:51;12.20;99.90
2967;DHT22;1493;51.496;7.210;2023-11-19T02:03:20;12.20;99.90
2967;DHT22;1493;51.496;7.210;2023-11-19T02:05:48;12.30;99.90
2967;DHT22;1493;51.496;7.210;2023-11-19T02:08:16;12.30;99.90
2967;DHT22;1493;51.496;7.210;2023-11-19T02:10:43;12.30;99.90
2967;DHT22;1493;51.496;7.210;2023-11-19T02:13:10;12.30;99.90
2967;DHT22;1493;51.496;7.210;2023-11-19T02:15:39;12.20;99.90
2967;DHT22;1493;51.496;7.210;2023-11-19T02:18:20;12.30;99.90
2967;DHT22;1493;51.496;7.210;2023-11-19T02:20:48;12.30;99.90
2967;DHT22;1493;51.496;7.210;2023-11-19T02:23:15;12.30;99.90
2967;DHT22;1493;51.496;7.210;2023-11-19T02:25:43;12.30;99.90
2967;DHT22;1493;51.496;7.210;2023-11-19T02:28:17;12.40;99.90
2967;DHT22;1493;51.496;7.210;2023-11-19T02:30:44;12.30;99.90
2967;DHT22;1493;51.496;7.210;2023-11-19T02:33:10;12.40;99.90
2967;DHT22;1493;51.496;7.210;2023-11-19T02:35:38;12.30;99.90
2967;DHT22;1493;51.496;7.210;2023-11-19T02:38:06;12.40;99.90
2967;DHT22;1493;51.496;7.210;2023-11-19T02:40:33;12.40;99.90
2967;DHT22;1493;51.496;7.210;2023-11-19T02:43:00;12.40;99.90
2967;DHT22;1493;51.496;7.210;2023-11-19T02:45:31;12.40;99.90
2967;DHT22;1493;51.496;7.210;2023-11-19T02:47:58;12.40;99.90
2967;DHT22;1493;51.496;7.210;2023-11-19T02:50:27;12.40;99.90
2967;DHT22;1493;51.496;7.210;2023-11-19T02:52:54;12.40;99.90
2967;DHT22;1493;51.496;7.210;2023-11-19T02:55:22;12.40;99.90
2967;DHT22;1493;51.496;7.210;2023-11-19T02:57:50;12.40;99.90
2967;DHT22;1493;51.496;7.210;2023-11-19T03:00:19;12.50;99.90
2967;DHT22;1493;51.496;7.210;2023-11-19T03:02:51;12.50;99.90
2967;DHT22;1493;51.496;7.210;2023-11-19T03:05:25;12.50;99.90
2967;DHT22;1493;51.496;7.210;2023-11-19T03:07:55;12.50;99.90
2967;DHT22;1493;51.496;7.210;2023-11-19T03:10:22;12.60;99.90
2967;DHT22;1493;51.496;7.210;2023-11-19T03:12:50;12.60;99.90
2967;DHT22;1493;51.496;7.210;2023-11-19T03:15:16;12.60;99.90
2967;DHT22;1493;51.496;7.210;2023-11-19T03:17:44;12.60;99.90
2967;DHT22;1493;51.496;7.210;2023-11-19T03:20:13;12.50;99.90
2967;DHT22;1493;51.496;7.210;2023-11-19T03:22:42;12.60;99.90
2967;DHT22;1493;51.496;7.210;2023-11-19T03:25:09;12.60;99.90
2967;DHT22;1493;51.496;7.210;2023-11-19T03:27:36;12.50;99.90
2967;DHT22;1493;51.496;7.210;2023-11-19T03:30:05;12.60;99.90
2967;DHT22;1493;51.496;7.210;2023-11-19T03:32:32;12.60;99.90
2967;DHT22;1493;51.496;7.210;2023-11-19T03:35:00;12.60;99.90
2967;DHT22;1493;51.496;7.210;2023-11-19T03:37:30;12.60;99.90
2967;DHT22;1493;51.496;7.210;2023-11-19T03:39:58;12.60;99.90
2967;DHT22;1493;51.496;7.210;2023-11-19T03:42:26;12.70;99.90
2967;DHT22;1493;51.496;7.210;2023-11-19T03:44:53;12.60;99.90
2967;DHT22;1493;51.496;7.210;2023-11-19T03:47:20;12.60;99.90
2967;DHT22;1493;51.496;7.210;2023-11-19T03:49:48;12.60;99.90
2967;DHT22;1493;51.496;7.210;2023-11-19T03:52:15;12.50;99.90
2967;DHT22;1493;51.496;7.210;2023-11-19T03:54:44;12.40;99.90
2967;DHT22;1493;51.496;7.210;2023-11-19T03:57:11;12.30;99.90
2967;DHT22;1493;51.496;7.210;2023-11-19T03:59:38;12.30;99.90
2967;DHT22;1493;51.496;7.210;2023-11-19T04:02:05;12.20;99.90
2967;DHT22;1493;51.496;7.210;2023-11-19T04:04:32;12.10;99.90
2967;DHT22;1493;51.496;7.210;2023-11-19T04:06:59;12.10;99.90
2967;DHT22;1493;51.496;7.210;2023-11-19T04:09:26;12.00;99.90
2967;DHT22;1493;51.496;7.210;2023-11-19T04:11:54;12.00;99.90
2967;DHT22;1493;51.496;7.210;2023-11-19T04:14:21;11.90;99.90
2967;DHT22;1493;51.496;7.210;2023-11-19T04:16:48;11.90;99.90
2967;DHT22;1493;51.496;7.210;2023-11-19T04:19:14;11.90;99.90
2967;DHT22;1493;51.496;7.210;2023-11-19T04:21:41;11.80;99.90
2967;DHT22;1493;51.496;7.210;2023-11-19T04:24:09;11.70;99.90
2967;DHT22;1493;51.496;7.210;2023-11-19T04:26:40;11.70;99.90
2967;DHT22;1493;51.496;7.210;2023-11-19T04:29:09;11.70;99.90
2967;DHT22;1493;51.496;7.210;2023-11-19T04:31:36;11.70;99.90
2967;DHT22;1493;51.496;7.210;2023-11-19T04:34:03;11.70;99.90
2967;DHT22;1493;51.496;7.210;2023-11-19T04:36:30;11.70;99.90
2967;DHT22;1493;51.496;7.210;2023-11-19T04:38:57;11.60;99.90
2967;DHT22;1493;51.496;7.210;2023-11-19T04:41:25;11.60;99.90
2967;DHT22;1493;51.496;7.210;2023-11-19T04:43:52;11.60;99.90
2967;DHT22;1493;51.496;7.210;2023-11-19T04:46:21;11.60;99.90
2967;DHT22;1493;51.496;7.210;2023-11-19T04:48:49;11.60;99.90
2967;DHT22;1493;51.496;7.210;2023-11-19T04:51:16;11.50;99.90
2967;DHT22;1493;51.496;7.210;2023-11-19T04:53:42;11.50;99.90
2967;DHT22;1493;51.496;7.210;2023-11-19T04:56:10;11.60;99.90
2967;DHT22;1493;51.496;7.210;2023-11-19T04:58:37;11.60;99.90
2967;DHT22;1493;51.496;7.210;2023-11-19T05:01:04;11.50;99.90
2967;DHT22;1493;51.496;7.210;2023-11-19T05:03:32;11.50;99.90
2967;DHT22;1493;51.496;7.210;2023-11-19T05:05:59;11.60;99.90
2967;DHT22;1493;51.496;7.210;2023-11-19T05:08:26;11.60;99.90
2967;DHT22;1493;51.496;7.210;2023-11-19T05:10:53;11.60;99.90
2967;DHT22;1493;51.496;7.210;2023-11-19T05:13:20;11.60;99.90
2967;DHT22;1493;51.496;7.210;2023-11-19T05:15:47;11.70;99.90
2967;DHT22;1493;51.496;7.210;2023-11-19T05:18:14;11.70;99.90
2967;DHT22;1493;51.496;7.210;2023-11-19T05:20:42;11.70;99.90
2967;DHT22;1493;51.496;7.210;2023-11-19T05:23:09;11.80;99.90
2967;DHT22;1493;51.496;7.210;2023-11-19T05:25:37;11.80;99.90
2967;DHT22;1493;51.496;7.210;2023-11-19T05:28:03;11.80;99.90
2967;DHT22;1493;51.496;7.210;2023-11-19T05:30:30;11.80;99.90
2967;DHT22;1493;51.496;7.210;2023-11-19T05:32:57;11.80;99.90
2967;DHT22;1493;51.496;7.210;2023-11-19T05:35:24;11.80;99.90
2967;DHT22;1493;51.496;7.210;2023-11-19T05:37:52;11.80;99.90
2967;DHT22;1493;51.496;7.210;2023-11-19T05:40:19;11.80;99.90
2967;DHT22;1493;51.496;7.210;2023-11-19T05:42:46;11.80;99.90
2967;DHT22;1493;51.496;7.210;2023-11-19T05:45:13;11.80;99.90
2967;DHT22;1493;51.496;7.210;2023-11-19T05:47:43;11.80;99.90
2967;DHT22;1493;51.496;7.210;2023-11-19T05:50:10;11.80;99.90
2967;DHT22;1493;51.496;7.210;2023-11-19T05:52:37;11.90;99.90
2967;DHT22;1493;51.496;7.210;2023-11-19T05:55:06;11.90;99.90
2967;DHT22;1493;51.496;7.210;2023-11-19T05:57:35;11.90;99.90
2967;DHT22;1493;51.496;7.210;2023-11-19T06:00:03;12.00;99.90
2967;DHT22;1493;51.496;7.210;2023-11-19T06:02:33;12.00;99.90
2967;DHT22;1493;51.496;7.210;2023-11-19T06:05:03;12.00;99.90
2967;DHT22;1493;51.496;7.210;2023-11-19T06:07:32;12.00;99.90
2967;DHT22;1493;51.496;7.210;2023-11-19T06:09:59;12.00;99.90
2967;DHT22;1493;51.496;7.210;2023-11-19T06:12:27;11.90;99.90
2967;DHT22;1493;51.496;7.210;2023-11-19T06:14:54;11.90;99.90
2967;DHT22;1493;51.496;7.210;2023-11-19T06:17:23;11.90;99.90
2967;DHT22;1493;51.496;7.210;2023-11-19T06:19:50;11.90;99.90
2967;DHT22;1493;51.496;7.210;2023-11-19T06:22:17;11.80;99.90
2967;DHT22;1493;51.496;7.210;2023-11-19T06:24:44;11.70;99.90
2967;DHT22;1493;51.496;7.210;2023-11-19T06:27:11;11.70;99.90
2967;DHT22;1493;51.496;7.210;2023-11-19T06:29:39;11.70;99.90
2967;DHT22;1493;51.496;7.210;2023-11-19T06:32:06;11.70;99.90
2967;DHT22;1493;51.496;7.210;2023-11-19T06:34:33;11.70;99.90
2967;DHT22;1493;51.496;7.210;2023-11-19T06:37:00;11.70;99.90
2967;DHT22;1493;51.496;7.210;2023-11-19T06:39:28;11.70;99.90
2967;DHT22;1493;51.496;7.210;2023-11-19T06:41:55;11.80;99.90
2967;DHT22;1493;51.496;7.210;2023-11-19T06:44:22;11.80;99.90
2967;DHT22;1493;51.496;7.210;2023-11-19T06:46:51;11.80;99.90
2967;DHT22;1493;51.496;7.210;2023-11-19T06:49:19;11.80;99.90
2967;DHT22;1493;51.496;7.210;2023-11-19T06:51:46;11.70;99.90
2967;DHT22;1493;51.496;7.210;2023-11-19T06:54:12;11.70;99.90
2967;DHT22;1493;51.496;7.210;2023-11-19T06:56:39;11.80;99.90
2967;DHT22;1493;51.496;7.210;2023-11-19T06:59:07;11.80;99.90
2967;DHT22;1493;51.496;7.210;2023-11-19T07:01:35;11.80;99.90
2967;DHT22;1493;51.496;7.210;2023-11-19T07:04:04;11.80;99.90
2967;DHT22;1493;51.496;7.210;2023-11-19T07:06:34;11.80;99.90
2967;DHT22;1493;51.496;7.210;2023-11-19T07:09:02;11.80;99.90
2967;DHT22;1493;51.496;7.210;2023-11-19T07:11:35;11.80;99.90
2967;DHT22;1493;51.496;7.210;2023-11-19T07:14:02;11.80;99.90
2967;DHT22;1493;51.496;7.210;2023-11-19T07:16:29;11.80;99.90
2967;DHT22;1493;51.496;7.210;2023-11-19T07:18:56;11.80;99.90
2967;DHT22;1493;51.496;7.210;2023-11-19T07:21:26;11.80;99.90
2967;DHT22;1493;51.496;7.210;2023-11-19T07:23:53;11.80;99.90
2967;DHT22;1493;51.496;7.210;2023-11-19T07:26:20;11.80;99.90
2967;DHT22;1493;51.496;7.210;2023-11-19T07:28:47;11.70;99.90
2967;DHT22;1493;51.496;7.210;2023-11-19T07:31:14;11.60;99.90
2967;DHT22;1493;51.496;7.210;2023-11-19T07:33:41;11.60;99.90
2967;DHT22;1493;51.496;7.210;2023-11-19T07:36:09;11.60;99.90
2967;DHT22;1493;51.496;7.210;2023-11-19T07:38:38;11.60;99.90
2967;DHT22;1493;51.496;7.210;2023-11-19T07:41:05;11.70;99.90
2967;DHT22;1493;51.496;7.210;2023-11-19T07:43:32;11.70;99.90
2967;DHT22;1493;51.496;7.210;2023-11-19T07:45:59;11.70;99.90
2967;DHT22;1493;51.496;7.210;2023-11-19T07:48:26;11.80;99.90
2967;DHT22;1493;51.496;7.210;2023-11-19T07:50:53;11.70;99.90
2967;DHT22;1493;51.496;7.210;2023-11-19T07:53:20;11.80;99.90
2967;DHT22;1493;51.496;7.210;2023-11-19T07:55:48;11.80;99.90
2967;DHT22;1493;51.496;7.210;2023-11-19T07:58:15;11.80;99.90
2967;DHT22;1493;51.496;7.210;2023-11-19T08:00:42;11.80;99.90
2967;DHT22;1493;51.496;7.210;2023-11-19T08:03:09;11.80;99.90
2967;DHT22;1493;51.496;7.210;2023-11-19T08:05:35;11.80;99.90
2967;DHT22;1493;51.496;7.210;2023-11-19T08:08:02;11.80;99.90
2967;DHT22;1493;51.496;7.210;2023-11-19T08:10:29;11.80;99.90
2967;DHT22;1493;51.496;7.210;2023-11-19T08:13:00;11.80;99.90
2967;DHT22;1493;51.496;7.210;2023-11-19T08:15:26;11.90;99.90
2967;DHT22;1493;51.496;7.210;2023-11-19T08:17:53;11.90;99.90
2967;DHT22;1493;51.496;7.210;2023-11-19T08:20:20;12.00;99.90
2967;DHT22;1493;51.496;7.210;2023-11-19T08:22:47;12.10;99.90
2967;DHT22;1493;51.496;7.210;2023-11-19T08:25:14;12.10;99.90
2967;DHT22;1493;51.496;7.210;2023-11-19T08:27:41;12.10;99.90
2967;DHT22;1493;51.496;7.210;2023-11-19T08:30:13;12.10;99.90
2967;DHT22;1493;51.496;7.210;2023-11-19T08:32:40;12.10;99.90
2967;DHT22;1493;51.496;7.210;2023-11-19T08:35:11;12.20;99.90
2967;DHT22;1493;51.496;7.210;2023-11-19T08:37:37;12.30;99.90
2967;DHT22;1493;51.496;7.210;2023-11-19T08:40:05;12.40;99.90
2967;DHT22;1493;51.496;7.210;2023-11-19T08:42:32;12.40;99.90
2967;DHT22;1493;51.496;7.210;2023-11-19T08:44:59;12.50;99.90
2967;DHT22;1493;51.496;7.210;2023-11-19T08:47:27;12.60;99.90
2967;DHT22;1493;51.496;7.210;2023-11-19T08:49:54;12.70;99.90
2967;DHT22;1493;51.496;7.210;2023-11-19T08:52:21;12.70;99.90
2967;DHT22;1493;51.496;7.210;2023-11-19T08:54:48;12.70;99.90
2967;DHT22;1493;51.496;7.210;2023-11-19T08:57:15;12.70;99.90
2967;DHT22;1493;51.496;7.210;2023-11-19T08:59:42;12.60;99.90
2967;DHT22;1493;51.496;7.210;2023-11-19T09:02:11;12.60;99.90
2967;DHT22;1493;51.496;7.210;2023-11-19T09:04:39;12.50;99.90
2967;DHT22;1493;51.496;7.210;2023-11-19T09:07:06;12.60;99.90
2967;DHT22;1493;51.496;7.210;2023-11-19T09:09:35;12.70;99.90
2967;DHT22;1493;51.496;7.210;2023-11-19T09:12:02;12.80;99.90
2967;DHT22;1493;51.496;7.210;2023-11-19T09:14:29;12.80;99.90
2967;DHT22;1493;51.496;7.210;2023-11-19T09:16:56;12.80;99.90
2967;DHT22;1493;51.496;7.210;2023-11-19T09:19:23;12.80;99.90
2967;DHT22;1493;51.496;7.210;2023-11-19T09:21:53;12.80;99.90
2967;DHT22;1493;51.496;7.210;2023-11-19T09:24:19;12.80;99.90
2967;DHT22;1493;51.496;7.210;2023-11-19T09:26:46;12.90;99.90
2967;DHT22;1493;51.496;7.210;2023-11-19T09:29:13;13.00;99.90
2967;DHT22;1493;51.496;7.210;2023-11-19T09:31:40;13.00;99.90
2967;DHT22;1493;51.496;7.210;2023-11-19T09:34:07;13.20;99.90
2967;DHT22;1493;51.496;7.210;2023-11-19T09:36:34;13.30;99.90
2967;DHT22;1493;51.496;7.210;2023-11-19T09:39:02;13.30;99.90
2967;DHT22;1493;51.496;7.210;2023-11-19T09:41:31;13.50;99.90
2967;DHT22;1493;51.496;7.210;2023-11-19T09:44:00;13.40;95.90
2967;DHT22;1493;51.496;7.210;2023-11-19T09:46:27;13.40;99.90
2967;DHT22;1493;51.496;7.210;2023-11-19T09:48:56;13.40;99.90
2967;DHT22;1493;51.496;7.210;2023-11-19T09:51:25;13.50;99.90
2967;DHT22;1493;51.496;7.210;2023-11-19T09:53:51;13.50;99.90
2967;DHT22;1493;51.496;7.210;2023-11-19T09:56:20;13.50;99.90
2967;DHT22;1493;51.496;7.210;2023-11-19T09:58:47;13.50;99.90
2967;DHT22;1493;51.496;7.210;2023-11-19T10:01:14;13.60;99.90
2967;DHT22;1493;51.496;7.210;2023-11-19T10:03:41;13.80;99.90
2967;DHT22;1493;51.496;7.210;2023-11-19T10:06:09;13.90;97.00
2967;DHT22;1493;51.496;7.210;2023-11-19T10:08:37;14.10;65.10
2967;DHT22;1493;51.496;7.210;2023-11-19T10:11:05;14.10;28.40
2967;DHT22;1493;51.496;7.210;2023-11-19T10:13:35;14.30;30.50
2967;DHT22;1493;51.496;7.210;2023-11-19T10:16:06;14.30;1.00
2967;DHT22;1493;51.496;7.210;2023-11-19T10:18:33;14.30;1.00
2967;DHT22;1493;51.496;7.210;2023-11-19T10:21:04;14.30;12.90
2967;DHT22;1493;51.496;7.210;2023-11-19T10:23:31;14.00;1.00
2967;DHT22;1493;51.496;7.210;2023-11-19T10:26:03;13.90;1.00
2967;DHT22;1493;51.496;7.210;2023-11-19T10:28:41;13.90;1.00
2967;DHT22;1493;51.496;7.210;2023-11-19T10:31:11;13.70;20.30
2967;DHT22;1493;51.496;7.210;2023-11-19T10:33:38;13.70;25.50
2967;DHT22;1493;51.496;7.210;2023-11-19T10:36:06;13.70;35.00
2967;DHT22;1493;51.496;7.210;2023-11-19T10:38:33;13.70;34.00
2967;DHT22;1493;51.496;7.210;2023-11-19T10:41:00;13.80;25.20
2967;DHT22;1493;51.496;7.210;2023-11-19T10:43:27;14.00;1.00
2967;DHT22;1493;51.496;7.210;2023-11-19T10:46:09;14.00;1.00
2967;DHT22;1493;51.496;7.210;2023-11-19T10:48:37;13.80;1.00
2967;DHT22;1493;51.496;7.210;2023-11-19T10:51:06;13.80;1.00
2967;DHT22;1493;51.496;7.210;2023-11-19T10:53:36;13.80;1.00
2967;DHT22;1493;51.496;7.210;2023-11-19T10:56:06;13.80;4.20
2967;DHT22;1493;51.496;7.210;2023-11-19T10:58:37;13.80;13.20
2967;DHT22;1493;51.496;7.210;2023-11-19T11:01:11;13.70;22.30
2967;DHT22;1493;51.496;7.210;2023-11-19T11:03:40;13.90;1.00
2967;DHT22;1493;51.496;7.210;2023-11-19T11:06:08;13.90;1.00
2967;DHT22;1493;51.496;7.210;2023-11-19T11:08:37;14.00;1.00
2967;DHT22;1493;51.496;7.210;2023-11-19T11:11:05;14.00;1.00
2967;DHT22;1493;51.496;7.210;2023-11-19T11:13:33;14.00;1.00
2967;DHT22;1493;51.496;7.210;2023-11-19T11:16:00;14.10;1.00
2967;DHT22;1493;51.496;7.210;2023-11-19T11:18:31;14.10;1.00
2967;DHT22;1493;51.496;7.210;2023-11-19T11:21:01;14.10;1.00
2967;DHT22;1493;51.496;7.210;2023-11-19T11:26:41;14.00;1.00
2967;DHT22;1493;51.496;7.210;2023-11-19T11:29:19;14.00;1.00
2967;DHT22;1493;51.496;7.210;2023-11-19T11:31:55;14.00;1.00
2967;DHT22;1493;51.496;7.210;2023-11-19T11:37:33;13.90;1.00
2967;DHT22;1493;51.496;7.210;2023-11-19T11:40:02;13.90;1.00
2967;DHT22;1493;51.496;7.210;2023-11-19T11:42:37;13.90;1.00
2967;DHT22;1493;51.496;7.210;2023-11-19T11:45:05;14.10;1.00
2967;DHT22;1493;51.496;7.210;2023-11-19T11:50:54;14.70;1.00
2967;DHT22;1493;51.496;7.210;2023-11-19T11:53:23;15.00;1.00
2967;DHT22;1493;51.496;7.210;2023-11-19T11:55:55;15.20;99.90
2967;DHT22;1493;51.496;7.210;2023-11-19T11:58:32;15.30;99.90
2967;DHT22;1493;51.496;7.210;2023-11-19T12:01:01;14.80;1.00
2967;DHT22;1493;51.496;7.210;2023-11-19T12:03:31;14.80;1.00
2967;DHT22;1493;51.496;7.210;2023-11-19T12:06:01;14.70;1.00
2967;DHT22;1493;51.496;7.210;2023-11-19T12:08:30;14.60;1.00
2967;DHT22;1493;51.496;7.210;2023-11-19T12:10:58;14.60;1.00
2967;DHT22;1493;51.496;7.210;2023-11-19T12:13:42;14.50;1.00
2967;DHT22;1493;51.496;7.210;2023-11-19T12:16:11;14.60;1.00
2967;DHT22;1493;51.496;7.210;2023-11-19T12:18:40;15.20;99.90
2967;DHT22;1493;51.496;7.210;2023-11-19T12:21:09;15.60;99.90
2967;DHT22;1493;51.496;7.210;2023-11-19T12:23:45;15.80;99.90
2967;DHT22;1493;51.496;7.210;2023-11-19T12:26:35;15.90;99.90
2967;DHT22;1493;51.496;7.210;2023-11-19T12:29:03;15.60;99.90
2967;DHT22;1493;51.496;7.210;2023-11-19T12:31:33;15.30;1.00
2967;DHT22;1493;51.496;7.210;2023-11-19T12:34:09;15.10;99.90
2967;DHT22;1493;51.496;7.210;2023-11-19T12:36:40;14.60;99.90
2967;DHT22;1493;51.496;7.210;2023-11-19T12:39:08;14.40;99.90
2967;DHT22;1493;51.496;7.210;2023-11-19T12:41:53;14.40;1.00
2967;DHT22;1493;51.496;7.210;2023-11-19T12:44:21;14.60;1.00
2967;DHT22;1493;51.496;7.210;2023-11-19T12:47:02;14.50;1.00
2967;DHT22;1493;51.496;7.210;2023-11-19T12:49:29;14.40;1.00
2967;DHT22;1493;51.496;7.210;2023-11-19T12:51:57;14.20;1.00
2967;DHT22;1493;51.496;7.210;2023-11-19T12:54:34;14.20;1.00
2967;DHT22;1493;51.496;7.210;2023-11-19T12:57:01;14.20;1.00
2967;DHT22;1493;51.496;7.210;2023-11-19T12:59:28;14.10;1.00
2967;DHT22;1493;51.496;7.210;2023-11-19T13:01:58;14.00;1.00
2967;DHT22;1493;51.496;7.210;2023-11-19T13:04:28;14.00;1.00
2967;DHT22;1493;51.496;7.210;2023-11-19T13:06:57;13.80;1.00
2967;DHT22;1493;51.496;7.210;2023-11-19T13:09:25;13.60;99.90
2967;DHT22;1493;51.496;7.210;2023-11-19T13:11:53;13.10;99.90
2967;DHT22;1493;51.496;7.210;2023-11-19T13:14:21;12.90;99.90
2967;DHT22;1493;51.496;7.210;2023-11-19T13:16:49;12.60;99.90
2967;DHT22;1493;51.496;7.210;2023-11-19T13:19:16;12.50;99.90
2967;DHT22;1493;51.496;7.210;2023-11-19T13:21:44;12.50;99.90
2967;DHT22;1493;51.496;7.210;2023-11-19T13:24:14;12.60;99.90
2967;DHT22;1493;51.496;7.210;2023-11-19T13:26:41;12.60;99.90
2967;DHT22;1493;51.496;7.210;2023-11-19T13:29:08;12.50;99.90
2967;DHT22;1493;51.496;7.210;2023-11-19T13:31:36;12.40;99.90
2967;DHT22;1493;51.496;7.210;2023-11-19T13:34:02;12.40;99.90
2967;DHT22;1493;51.496;7.210;2023-11-19T13:36:32;12.60;99.90
2967;DHT22;1493;51.496;7.210;2023-11-19T13:38:59;12.70;99.90
2967;DHT22;1493;51.496;7.210;2023-11-19T13:41:28;12.70;99.90
2967;DHT22;1493;51.496;7.210;2023-11-19T13:43:54;12.70;99.90
2967;DHT22;1493;51.496;7.210;2023-11-19T13:46:21;12.70;99.90
2967;DHT22;1493;51.496;7.210;2023-11-19T13:48:48;12.90;99.90
2967;DHT22;1493;51.496;7.210;2023-11-19T13:51:18;13.00;99.90
2967;DHT22;1493;51.496;7.210;2023-11-19T13:53:45;13.10;99.90
2967;DHT22;1493;51.496;7.210;2023-11-19T13:56:13;13.20;99.90
2967;DHT22;1493;51.496;7.210;2023-11-19T13:58:41;13.10;99.90
2967;DHT22;1493;51.496;7.210;2023-11-19T14:01:08;13.40;99.90
2967;DHT22;1493;51.496;7.210;2023-11-19T14:03:34;13.60;99.90
2967;DHT22;1493;51.496;7.210;2023-11-19T14:06:01;13.70;99.90
2967;DHT22;1493;51.496;7.210;2023-11-19T14:08:28;13.60;99.90
2967;DHT22;1493;51.496;7.210;2023-11-19T14:10:55;13.30;99.90
2967;DHT22;1493;51.496;7.210;2023-11-19T14:13:22;13.20;99.90
2967;DHT22;1493;51.496;7.210;2023-11-19T14:15:52;13.10;99.90
2967;DHT22;1493;51.496;7.210;2023-11-19T14:18:19;13.00;99.90
2967;DHT22;1493;51.496;7.210;2023-11-19T14:20:46;12.90;99.90
2967;DHT22;1493;51.496;7.210;2023-11-19T14:23:13;12.70;99.90
2967;DHT22;1493;51.496;7.210;2023-11-19T14:25:40;12.70;99.90
2967;DHT22;1493;51.496;7.210;2023-11-19T14:28:09;12.80;99.90
2967;DHT22;1493;51.496;7.210;2023-11-19T14:30:38;12.70;99.90
2967;DHT22;1493;51.496;7.210;2023-11-19T14:33:08;12.70;99.90
2967;DHT22;1493;51.496;7.210;2023-11-19T14:35:36;12.70;99.90
2967;DHT22;1493;51.496;7.210;2023-11-19T14:38:05;12.60;99.90
2967;DHT22;1493;51.496;7.210;2023-11-19T14:40:35;12.50;99.90
2967;DHT22;1493;51.496;7.210;2023-11-19T14:43:02;12.50;99.90
2967;DHT22;1493;51.496;7.210;2023-11-19T14:45:28;12.50;99.90
2967;DHT22;1493;51.496;7.210;2023-11-19T14:47:55;12.40;99.90
2967;DHT22;1493;51.496;7.210;2023-11-19T14:50:24;12.40;99.90
2967;DHT22;1493;51.496;7.210;2023-11-19T14:52:52;12.40;99.90
2967;DHT22;1493;51.496;7.210;2023-11-19T14:55:19;12.30;99.90
2967;DHT22;1493;51.496;7.210;2023-11-19T14:57:45;12.20;99.90
2967;DHT22;1493;51.496;7.210;2023-11-19T15:00:13;12.30;99.90
2967;DHT22;1493;51.496;7.210;2023-11-19T15:02:40;12.30;99.90
2967;DHT22;1493;51.496;7.210;2023-11-19T15:05:08;12.20;99.90
2967;DHT22;1493;51.496;7.210;2023-11-19T15:07:39;12.20;99.90
2967;DHT22;1493;51.496;7.210;2023-11-19T15:10:07;12.20;99.90
2967;DHT22;1493;51.496;7.210;2023-11-19T15:12:36;12.20;99.90
2967;DHT22;1493;51.496;7.210;2023-11-19T15:15:07;12.20;99.90
2967;DHT22;1493;51.496;7.210;2023-11-19T15:17:34;12.20;99.90
2967;DHT22;1493;51.496;7.210;2023-11-19T15:20:01;12.20;99.90
2967;DHT22;1493;51.496;7.210;2023-11-19T15:22:28;12.20;99.90
2967;DHT22;1493;51.496;7.210;2023-11-19T15:24:56;12.10;99.90
2967;DHT22;1493;51.496;7.210;2023-11-19T15:27:23;12.00;99.90
2967;DHT22;1493;51.496;7.210;2023-11-19T15:29:49;12.00;99.90
2967;DHT22;1493;51.496;7.210;2023-11-19T15:32:19;12.10;99.90
2967;DHT22;1493;51.496;7.210;2023-11-19T15:34:46;12.10;99.90
2967;DHT22;1493;51.496;7.210;2023-11-19T15:37:14;12.10;99.90
2967;DHT22;1493;51.496;7.210;2023-11-19T15:39:41;12.00;99.90
2967;DHT22;1493;51.496;7.210;2023-11-19T15:42:12;12.10;99.90
2967;DHT22;1493;51.496;7.210;2023-11-19T15:44:39;12.00;99.90
2967;DHT22;1493;51.496;7.210;2023-11-19T15:47:08;11.80;99.90
2967;DHT22;1493;51.496;7.210;2023-11-19T15:49:35;11.80;99.90
2967;DHT22;1493;51.496;7.210;2023-11-19T15:52:02;11.70;99.90
2967;DHT22;1493;51.496;7.210;2023-11-19T15:54:30;11.60;99.90
2967;DHT22;1493;51.496;7.210;2023-11-19T15:56:57;11.40;99.90
2967;DHT22;1493;51.496;7.210;2023-11-19T15:59:25;11.40;99.90
2967;DHT22;1493;51.496;7.210;2023-11-19T16:01:54;11.40;99.90
2967;DHT22;1493;51.496;7.210;2023-11-19T16:04:22;11.30;99.90
2967;DHT22;1493;51.496;7.210;2023-11-19T16:06:49;11.30;99.90
2967;DHT22;1493;51.496;7.210;2023-11-19T16:09:19;11.20;99.90
2967;DHT22;1493;51.496;7.210;2023-11-19T16:11:49;11.20;99.90
2967;DHT22;1493;51.496;7.210;2023-11-19T16:14:16;11.30;99.90
2967;DHT22;1493;51.496;7.210;2023-11-19T16:16:51;11.30;99.90
2967;DHT22;1493;51.496;7.210;2023-11-19T16:19:30;11.30;99.90